KOR6375 ZBAA-ZKPY
Flight info
| Callsign | KOR6375 |
|---|---|
| Flight time | N/A |
| Altitude | 35100 |
| Route | DOTRA B334 KAKAT W31 CHG A575 BIDIB A345 GASAN |
| Aircraft | A320/M-SDE3FGHIRWY/LB1 |
Departure
| Time | N/A |
|---|---|
| Airport | Beijing Capital International Airport (ZBAA) |
Arrival
| Time | 2026-04-26 11:23 |
|---|---|
| Airport | Pyongyang Sunan International Airport (ZKPY) |
| Time | Latitude | Longitude | Altitude | Speed | Heading |
|---|---|---|---|---|---|
| 2026-04-26 10:45 | 41.62555 | 121.84596 | 35111 ft | 524 kts | 82° |
| 2026-04-26 10:45 | 41.62914 | 121.89449 | 35111 ft | 524 kts | 82° |
| 2026-04-26 10:45 | 41.63629 | 121.99149 | 35113 ft | 524 kts | 83° |
| 2026-04-26 10:46 | 41.64289 | 122.08855 | 35147 ft | 525 kts | 86° |
| 2026-04-26 10:46 | 41.63705 | 122.18560 | 35134 ft | 525 kts | 99° |
| 2026-04-26 10:47 | 41.62605 | 122.28209 | 35103 ft | 525 kts | 99° |
| 2026-04-26 10:47 | 41.61521 | 122.37804 | 35098 ft | 526 kts | 99° |
| 2026-04-26 10:48 | 41.60413 | 122.47478 | 35101 ft | 527 kts | 99° |
| 2026-04-26 10:48 | 41.59293 | 122.57143 | 35103 ft | 527 kts | 99° |
| 2026-04-26 10:49 | 41.58167 | 122.66777 | 35101 ft | 528 kts | 99° |
| 2026-04-26 10:49 | 41.57026 | 122.76458 | 35104 ft | 528 kts | 99° |
| 2026-04-26 10:50 | 41.55877 | 122.86150 | 35110 ft | 529 kts | 99° |
| 2026-04-26 10:50 | 41.54721 | 122.95856 | 35097 ft | 529 kts | 99° |
| 2026-04-26 10:51 | 41.52961 | 123.10385 | 35125 ft | 528 kts | 99° |
| 2026-04-26 10:52 | 41.51791 | 123.20056 | 35117 ft | 528 kts | 99° |
| 2026-04-26 10:52 | 41.50603 | 123.29728 | 35101 ft | 528 kts | 100° |
| 2026-04-26 10:53 | 41.49477 | 123.39401 | 35103 ft | 528 kts | 99° |
| 2026-04-26 10:53 | 41.48418 | 123.49085 | 35105 ft | 528 kts | 99° |
| 2026-04-26 10:54 | 41.46803 | 123.63610 | 35100 ft | 528 kts | 99° |
| 2026-04-26 10:54 | 41.45697 | 123.73275 | 35104 ft | 528 kts | 99° |
| 2026-04-26 10:55 | 41.44576 | 123.82935 | 35105 ft | 528 kts | 99° |
| 2026-04-26 10:55 | 41.43448 | 123.92603 | 35102 ft | 528 kts | 99° |
| 2026-04-26 10:56 | 41.41828 | 124.02088 | 35125 ft | 523 kts | 116° |
| 2026-04-26 10:56 | 41.40161 | 124.06348 | 35112 ft | 516 kts | 128° |
| 2026-04-26 10:56 | 41.37953 | 124.10053 | 35110 ft | 507 kts | 140° |
| 2026-04-26 10:57 | 41.35317 | 124.13081 | 35082 ft | 496 kts | 152° |
| 2026-04-26 10:57 | 41.32380 | 124.15364 | 35097 ft | 484 kts | 163° |
| 2026-04-26 10:57 | 41.29255 | 124.16876 | 35088 ft | 472 kts | 174° |
| 2026-04-26 10:57 | 41.26063 | 124.17651 | 35072 ft | 463 kts | 181° |
| 2026-04-26 10:58 | 41.19687 | 124.18382 | 35092 ft | 458 kts | 186° |
| 2026-04-26 10:58 | 41.13327 | 124.18730 | 35084 ft | 457 kts | 186° |
| 2026-04-26 10:59 | 41.06951 | 124.19138 | 35092 ft | 459 kts | 185° |
| 2026-04-26 10:59 | 41.00573 | 124.19715 | 35093 ft | 460 kts | 184° |
| 2026-04-26 11:00 | 40.94232 | 124.20502 | 35074 ft | 461 kts | 183° |
| 2026-04-26 11:00 | 40.87805 | 124.21317 | 35073 ft | 461 kts | 183° |
| 2026-04-26 11:01 | 40.81469 | 124.22051 | 35086 ft | 460 kts | 184° |
| 2026-04-26 11:01 | 40.75086 | 124.22753 | 35089 ft | 460 kts | 184° |
| 2026-04-26 11:02 | 40.68717 | 124.23468 | 35058 ft | 459 kts | 183° |
| 2026-04-26 11:02 | 40.62349 | 124.24197 | 35074 ft | 459 kts | 183° |
| 2026-04-26 11:03 | 40.55992 | 124.24917 | 35075 ft | 459 kts | 183° |
| 2026-04-26 11:03 | 40.49630 | 124.25626 | 35062 ft | 459 kts | 183° |
| 2026-04-26 11:04 | 40.43265 | 124.26346 | 35068 ft | 459 kts | 183° |
| 2026-04-26 11:04 | 40.36905 | 124.27081 | 34705 ft | 460 kts | 182° |
| 2026-04-26 11:05 | 40.33724 | 124.27917 | 33971 ft | 474 kts | 171° |
| 2026-04-26 11:05 | 40.30640 | 124.29591 | 33157 ft | 487 kts | 159° |
| 2026-04-26 11:05 | 40.27803 | 124.32075 | 31829 ft | 497 kts | 146° |
| 2026-04-26 11:05 | 40.25415 | 124.35341 | 30345 ft | 511 kts | 131° |
| 2026-04-26 11:06 | 40.23554 | 124.39358 | 28666 ft | 522 kts | 117° |
| 2026-04-26 11:06 | 40.22363 | 124.43885 | 27445 ft | 516 kts | 107° |
| 2026-04-26 11:06 | 40.21316 | 124.48320 | 26113 ft | 520 kts | 112° |
| 2026-04-26 11:06 | 40.19780 | 124.52696 | 24731 ft | 526 kts | 121° |
| 2026-04-26 11:07 | 40.17862 | 124.56712 | 23613 ft | 527 kts | 126° |
| 2026-04-26 11:07 | 40.15845 | 124.60639 | 22892 ft | 516 kts | 125° |
| 2026-04-26 11:07 | 40.13885 | 124.64532 | 21972 ft | 507 kts | 125° |
| 2026-04-26 11:07 | 40.11988 | 124.68342 | 20585 ft | 499 kts | 124° |
| 2026-04-26 11:08 | 40.10112 | 124.72117 | 19818 ft | 491 kts | 124° |
| 2026-04-26 11:08 | 40.08267 | 124.75819 | 19091 ft | 482 kts | 124° |
| 2026-04-26 11:08 | 40.06456 | 124.79431 | 17933 ft | 469 kts | 125° |
| 2026-04-26 11:08 | 40.04674 | 124.82958 | 16905 ft | 461 kts | 125° |
| 2026-04-26 11:09 | 40.02915 | 124.86419 | 16091 ft | 455 kts | 125° |
| 2026-04-26 11:09 | 40.01165 | 124.89848 | 15221 ft | 453 kts | 125° |
| 2026-04-26 11:09 | 39.99427 | 124.93252 | 14406 ft | 450 kts | 125° |
| 2026-04-26 11:09 | 39.97698 | 124.96638 | 13589 ft | 447 kts | 124° |
| 2026-04-26 11:10 | 39.95985 | 124.99997 | 12792 ft | 442 kts | 124° |
| 2026-04-26 11:10 | 39.94302 | 125.03312 | 12062 ft | 437 kts | 124° |
| 2026-04-26 11:10 | 39.92642 | 125.06583 | 11434 ft | 429 kts | 124° |
| 2026-04-26 11:10 | 39.91025 | 125.09766 | 11207 ft | 411 kts | 125° |
| 2026-04-26 11:11 | 39.89485 | 125.12790 | 11071 ft | 391 kts | 125° |
| 2026-04-26 11:11 | 39.88011 | 125.15674 | 10947 ft | 374 kts | 125° |
| 2026-04-26 11:11 | 39.86599 | 125.18427 | 10824 ft | 359 kts | 125° |
| 2026-04-26 11:11 | 39.85238 | 125.21078 | 10700 ft | 346 kts | 125° |
| 2026-04-26 11:12 | 39.83925 | 125.23633 | 10578 ft | 334 kts | 126° |
| 2026-04-26 11:12 | 39.82653 | 125.26107 | 10455 ft | 324 kts | 126° |
| 2026-04-26 11:12 | 39.81417 | 125.28510 | 10258 ft | 317 kts | 126° |
| 2026-04-26 11:12 | 39.80198 | 125.30878 | 10092 ft | 313 kts | 126° |
| 2026-04-26 11:13 | 39.78988 | 125.33228 | 9928 ft | 314 kts | 126° |
| 2026-04-26 11:13 | 39.77778 | 125.35573 | 9508 ft | 316 kts | 126° |
| 2026-04-26 11:13 | 39.76565 | 125.37924 | 9185 ft | 313 kts | 126° |
| 2026-04-26 11:13 | 39.75331 | 125.40315 | 8821 ft | 311 kts | 126° |
| 2026-04-26 11:14 | 39.74109 | 125.42561 | 8466 ft | 305 kts | 133° |
| 2026-04-26 11:14 | 39.72566 | 125.44387 | 7869 ft | 297 kts | 149° |
| 2026-04-26 11:14 | 39.70767 | 125.45577 | 7505 ft | 287 kts | 164° |
| 2026-04-26 11:14 | 39.69525 | 125.46131 | 7295 ft | 286 kts | 165° |
| 2026-04-26 11:15 | 39.67013 | 125.47264 | 6873 ft | 284 kts | 164° |
| 2026-04-26 11:15 | 39.65155 | 125.48113 | 6561 ft | 282 kts | 164° |
| 2026-04-26 11:15 | 39.63311 | 125.48959 | 6244 ft | 280 kts | 164° |
| 2026-04-26 11:15 | 39.61475 | 125.49797 | 5927 ft | 280 kts | 163° |
| 2026-04-26 11:16 | 39.59643 | 125.50632 | 5619 ft | 278 kts | 163° |
| 2026-04-26 11:16 | 39.57824 | 125.51460 | 5315 ft | 276 kts | 163° |
| 2026-04-26 11:16 | 39.56019 | 125.52282 | 5008 ft | 274 kts | 163° |
| 2026-04-26 11:16 | 39.54225 | 125.53099 | 4705 ft | 273 kts | 162° |
| 2026-04-26 11:17 | 39.52442 | 125.53910 | 4394 ft | 271 kts | 162° |
| 2026-04-26 11:17 | 39.50667 | 125.54714 | 4102 ft | 269 kts | 162° |
| 2026-04-26 11:17 | 39.48923 | 125.55503 | 3977 ft | 260 kts | 162° |
| 2026-04-26 11:17 | 39.47251 | 125.56262 | 3872 ft | 250 kts | 162° |
| 2026-04-26 11:18 | 39.45637 | 125.56993 | 3770 ft | 240 kts | 163° |
| 2026-04-26 11:18 | 39.44090 | 125.57691 | 3664 ft | 231 kts | 163° |
| 2026-04-26 11:18 | 39.42603 | 125.58355 | 3500 ft | 225 kts | 164° |
| 2026-04-26 11:18 | 39.41108 | 125.58962 | 3078 ft | 231 kts | 165° |
| 2026-04-26 11:19 | 39.39557 | 125.59563 | 2672 ft | 235 kts | 166° |
| 2026-04-26 11:19 | 39.37999 | 125.60162 | 2449 ft | 230 kts | 165° |
| 2026-04-26 11:19 | 39.36507 | 125.60732 | 2404 ft | 216 kts | 166° |
| 2026-04-26 11:19 | 39.35115 | 125.61281 | 2411 ft | 205 kts | 165° |
| 2026-04-26 11:20 | 39.33770 | 125.61816 | 2389 ft | 201 kts | 166° |
| 2026-04-26 11:20 | 39.32866 | 125.62167 | 2261 ft | 199 kts | 166° |
| 2026-04-26 11:20 | 39.31125 | 125.62841 | 1977 ft | 193 kts | 165° |
| 2026-04-26 11:20 | 39.29887 | 125.63331 | 1728 ft | 177 kts | 165° |
| 2026-04-26 11:21 | 39.28770 | 125.63777 | 1494 ft | 158 kts | 165° |
| 2026-04-26 11:21 | 39.27754 | 125.64179 | 1279 ft | 149 kts | 165° |
| 2026-04-26 11:21 | 39.26783 | 125.64563 | 1085 ft | 144 kts | 165° |
| 2026-04-26 11:21 | 39.25831 | 125.64937 | 901 ft | 143 kts | 166° |
| 2026-04-26 11:22 | 39.24890 | 125.65310 | 723 ft | 141 kts | 163° |
| 2026-04-26 11:22 | 39.23954 | 125.65679 | 511 ft | 141 kts | 164° |
| 2026-04-26 11:22 | 39.23022 | 125.66049 | 320 ft | 140 kts | 163° |
| 2026-04-26 11:22 | 39.22092 | 125.66422 | 167 ft | 140 kts | 164° |
| 2026-04-26 11:23 | 39.21209 | 125.66760 | 99 ft | 106 kts | 162° |
| 2026-04-26 11:23 | 39.20784 | 125.66935 | 99 ft | 35 kts | 162° |
| 2026-04-26 11:23 | 39.20555 | 125.67027 | 101 ft | 35 kts | 163° |
| 2026-04-26 11:23 | 39.20353 | 125.67142 | 98 ft | 30 kts | 140° |
| 2026-04-26 11:24 | 39.20263 | 125.67291 | 99 ft | 0 kts | 122° |
| 2026-04-26 11:24 | 39.20263 | 125.67292 | 98 ft | 0 kts | 122° |
| 2026-04-26 11:24 | 39.20257 | 125.67305 | 98 ft | 3 kts | 122° |
| 2026-04-26 11:25 | 39.20240 | 125.67336 | 97 ft | 6 kts | 124° |
| 2026-04-26 11:25 | 39.20214 | 125.67387 | 97 ft | 8 kts | 123° |
| 2026-04-26 11:25 | 39.20164 | 125.67436 | 97 ft | 10 kts | 154° |
| 2026-04-26 11:25 | 39.20088 | 125.67471 | 97 ft | 13 kts | 162° |
| 2026-04-26 11:26 | 39.20043 | 125.67510 | 98 ft | 4 kts | 106° |
| 2026-04-26 11:26 | 39.20044 | 125.67546 | 98 ft | 0 kts | 78° |
| 2026-04-26 11:26 | 39.20047 | 125.67564 | 98 ft | 4 kts | 77° |
| 2026-04-26 11:26 | 39.20048 | 125.67568 | 98 ft | 0 kts | 76° |